AREA preflight bulletin
Updated "live" 20 Mar 2019, 00:51

back to the map




METAR og TAF


THULE (MIL)
  AKTUEL BGTL 192356Z AUTO 10010KT 9999 CLR M33/M38 A2954 RMK AO2 SLP999 T13321377 11271 21335 50003 TSNO ?=
  TAF 24 timer BGTL 191700Z 1917/2023 17012KT 9999 BKN020 QNH2945INS WND 080V180 BECMG 2007/2008 10009KT 9999 FEW020 BKN100 QNH2933INS BECMG 2015/2016 10009KT 9999 BKN020 QNH2931INS BECMG 2018/2019 12012G18KT 9999 BKN020 QNH2932INS TXM25/1918Z TNM34/2003Z LAST NO AMDS AFT 1919 NEXT 2009=

QAANAAQ
  AKTUEL BGQQ 200050Z AUTO 00000KT 9999NDV NCD M31/M36 Q1002=
  TAF 9 timer BGQQ 191459Z 1915/1920 VRB05KT 9999 FEW025=

UPERNAVIK
  AKTUEL BGUK 200050Z AUTO 08011KT 9999NDV OVC074/// M27/M32 Q0996=
  TAF 9 timer BGUK 192101Z 1921/1924 CNL=

ILULISSAT
  AKTUEL BGJN 200050Z AUTO 10014KT 1500NDV -SHSN FEW035/// BKN041/// OVC047/// M24/M29 Q0997=
  TAF 9 timer BGJN 192023Z 1921/2001 15015KT 9999 DRSN SCT010 BKN030 TEMPO 1921/2001 0800 SHSN VV006=

KANGERLUSSUAQ
  AKTUEL BGSF 200050Z AUTO 06007KT 9999NDV NCD M28/M32 Q0996=
  TAF 24 timer BGSF 192247Z 2000/2024 06005KT 9999 BKN050 TEMPO 2000/2024 SCT050=


SIGMETS:

SONDRESTROM FIR
  SIGMET BGGL SIGMET 8 VALID 192020/200020 BGSF- BGGL NUUK FIR SEV TURB FCST AT 2020Z WI N5935 W04309 - N5943 W04457 - N6557 W04201 - N6521 W03854 - N5935 W04309 SFC/FL110 STNR NC=

SONDRESTROM FIR
  SIGMET BGGL SIGMET 1 VALID 200020/200330 BGSF- BGGL NUUK FIR SEV TURB FCST AT 0020Z WI N5946 W04300 - N6014 W04430 - N6645 W04021 - N6532 W03810 - N5946 W04300 SFC/FL110 STNR NC=

SNOWTAM:

ICAO
BGQQ (QAANAAQ)

valid from:
1903191210

Notam_id:
0120

SNOWTAM 0120 A) BGQQ B) 03191210 C) 17 F) 8/8/8 G) 6/6/6 H) 5/5/5 N) 8/MEDIUM-GOOD R) 8/MEDIUM-GOOD T) RWY CONTAMINATION 100 PERCENT 6MM COMPACTED OR ROLLED SNOW - FRICTION COEFFICIENT 41/47/40 TAP


ICAO
BGUK (UPERNAVIK)

valid from:
1903191449

Notam_id:
0284

SNOWTAM 0284 A) BGUK B) 03191449 C) 05 F) 8/8/8 G) 2/2/2 H) 5/5/5 N) 8/GOOD R) 48/GOOD T) RWY CONTAMINATION 025 PERCENT 2MM COMPACTED SNOW - MEASURED FRICTION COEFFICIENT 83/83/85 TAP


ICAO
BGJN (ILULISSAT)

valid from:
1903192211

Notam_id:
0220

SNOWTAM 0220 A) BGJN B) 03192211 C) 07 F) 48/48/48 G) 3/3/3 H) 5/5/5 N) AS RWY R) 48/GOOD T) RWY CONTAMINATION: 100 PERCENT 1MM DRY SNOW AND 25 PERCENT 2MM COMPACTED SNOW, MEASURED FRICTION COEFFICIENTS 77/76/79 TAP - SWEEPING IN PROGRESS


ICAO
BGSF (KANGERLUSSUAQ)

valid from:
1903191950

Notam_id:
0388

SNOWTAM 0388 A) BGSF B) 03191950 C) 09 F) 7/7/7 G) 2/2/2 H) 5/5/5 N) A C/7/GOOD B/87/POOR D/UNRELIABLE R) N/7/GOOD E/87/POOR W/UNRELIABLE HELIAPRON/487/POOR T) MEASURED FRICTION COEFFICIENTS 82/86/83 TAP, RWY CONTAMINATION 10 PERCENT 2MM ICE



NOTAM/SNOWTAM for operationel use has to be confirmed with the
nearest AIS Briefing Office prior to a flight.

ICAO
BGQQ (QAANAAQ)

FIR
BGGL

Notam_id:
BGB0811/18

valid from:
1810121100

E) SEA RESCUE SERVICE NOT AVAILABLE

valid to:
1907151100




ICAO
BGUK (UPERNAVIK)

FIR
BGGL

Notam_id:
BGB0928/18

valid from:
1812121246

E) SEA RESCUE SERVICE NOT AVBL.

valid to:
1905312000EST




ICAO
BGUK (UPERNAVIK)

FIR
BGGL

Notam_id:
BGB0145/19

valid from:
1903041251

E) FIRE AND RESCUE CAT. 5 ONLY AVAILBLAE WHEN REQUESTED DUE TO LACK OF STAFF.

valid to:
1912301500




ICAO
BGUK (UPERNAVIK)

FIR
BGGL

Notam_id:
BGB0112/19

valid from:
1902181446

E) SNOWREMOVAL DOWNGRADED, DUE TO LACK OF VEHICLE.

valid to:
1905311400EST


Replacing:
BGB0039/19

ICAO
BGGL (SONDRESTROM FIR)

FIR
BGGL

Notam_id:
BGA0128/19

valid from:
1903081607

E) NUUK INFORMATION FREQ 5526 KHZ PSN 6534N03707W (KULUSUK)U/S.

valid to:
1903201800


Replacing:
BGA0127/19

ICAO
BGGL (SONDRESTROM FIR)

FIR
BGGL

Notam_id:
BGA0124/19

valid from:
1903010624

E) CHECKLIST YEAR=2017 0269 YEAR=2018 0199 0538 YEAR=2019 0023 0085 0087 0103 0112 0117 0122 0123 LATEST PUBLICATIONS AIP AIRAC AMDT IFR 002/2019 EFFECTIVE DATE 28 MAR 19 AIP AMDT IFR 003/2018 EFFECTIVE DATE 15 MAR 18 AIP SUP IFR 006/2018 EFFECTIVE DATE 18 JUN 18 AIC IFR A001/2019 EFFECTIVE DATE 17 JAN 19

valid to:
1904010624EST


Replacing:
BGA0080/19

ICAO
BGGL (SONDRESTROM FIR)

FIR
BGGL

Notam_id:
BGB0138/19

valid from:
1903010626

E) CHECKLIST YEAR=2017 0740 0930 YEAR=2018 0806 0811 0928 0949 0958 0973 YEAR=2019 0005 0070 0074 0075 0078 0091 0106 0112 0117 0124 0125 0127 0131 0132 0133 0136 LATEST PUBLICATIONS AIP AIRAC AMDT IFR 002/2019 EFFECTIVE DATE 28 MAR 19 AIP AMDT IFR 003/2018 EFFECTIVE DATE 15 MAR 18 AIP SUP IFR 006/2018 EFFECTIVE DATE 18 JUN 18 AIC IFR A001/2019 EFFECTIVE DATE 17 JAN 19

valid to:
1904010626EST


Replacing:
BGB0072/19

ICAO
BGGL (SONDRESTROM FIR)

FIR
BGGL

Notam_id:
BGC0023/19

valid from:
1903010626

E) CHECKLIST YEAR=2018 0079 0081 YEAR=2019 0008 0011 0012 0013 0014 0015 0016 0017 0022 LATEST PUBLICATIONS AIP AIRAC AMDT IFR 002/2019 EFFECTIVE DATE 28 MAR 19 AIP AMDT IFR 003/2018 EFFECTIVE DATE 15 MAR 18 AIP SUP IFR 006/2018 EFFECTIVE DATE 18 JUN 18 AIC IFR A001/2019 EFFECTIVE DATE 17 JAN 19

valid to:
1904010626EST


Replacing:
BGC0007/19

ICAO
BGGL (SONDRESTROM FIR)

FIR
BGGL

Notam_id:
BGA0125/19

valid from:
1904250000

E) AIP AIRAC AMDT EFFECTIVE DATE 25 APR 2019: NIL.

valid to:
1905082359




ICAO
BGGL (SONDRESTROM FIR)

FIR
BGGL

Notam_id:
BGA0143/19

valid from:
1903271300

E) NUUK INFORMATION FREQ 121.300 MHZ PSN 610158N0453614W (NAAJAT) OUT OF SERVICE DUE MAINTENANCE.

valid to:
1903271600




ICAO
BGGL (SONDRESTROM FIR)

FIR
BGGL

Notam_id:
BGA0138/19

valid from:
1903221000

E) NUUK INFORMATION FREQ 120.300 MHZ PSN 702906N0215850W (ITTOQQORTOORMIIT) U/S DUE MAINTENANCE.

valid to:
1903221400




ICAO
BGGL (SONDRESTROM FIR)

FIR
BGGL

Notam_id:
BGA0199/18

valid from:
1805310935

E) GREENLAND AND ADJACENT WATERS ARE CONSIDERED HOSTILE AREAS BY THE CIVIL AVIATION AUTHORITY (TBST). THREE MAJOR REASONS CONTRIBUTE TO DEFINING THE AREA AS HOSTILE: A SAFE FORCED LANDING CANNOT BE ACCOMPLISHED BECAUSE THE SURFACE IS INADEQUATE. THE HELICOPTER OCCUPANTS CANNOT BE ADEQUATELY PROTECTED FROM THE ELEMENTS. SEARCH AND RESCUE RESPONSE/CAPABILITY ARE NOT PROVIDED CONSISTENT WITH ANTICIPATED EXPOSURE.

valid to:
PERM




ICAO
BGJN (ILULISSAT)

FIR
BGGL

Notam_id:
BGB0136/19

valid from:
1902282105

E) EVERY SECOND APCH LIGHT RWY 07/25 OUT OF SERVICE.

valid to:
1903311600




ICAO
BGSF (KANGERLUSSUAQ)

FIR
BGGL

Notam_id:
BGA0122/19

valid from:
1902271216

E) TWY D CLOSED DUE ICE.

valid to:
1904011900


Replacing:
BGA0019/19

ICAO
BGSF (KANGERLUSSUAQ)

FIR
BGGL

Notam_id:
BGA0123/19

valid from:
1902271217

E) APRON WEST CLOSED DUE TO ICE.

valid to:
1904011900


Replacing:
BGA0020/19

ICAO
BGSF (KANGERLUSSUAQ)

FIR
BGGL

Notam_id:
BGA0142/19

valid from:
1903191720

E) EVERY OTHER RWY EDGE LIGHT U/S.

valid to:
1903202000EST


Replacing:
BGA0141/19


Copyright Naviair   2003-2016